Time,TemperatureF,DewpointF,PressureIn,WindDirection,WindDirectionDegrees,WindSpeedMPH,WindSpeedGustMPH,Humidity,HourlyPrecipIn,Conditions,Clouds,dailyrainin,SoftwareType,DateUTC
2013-02-22 00:03:00,20.6,18.4,29.90,NNE,22,5.0,6.0,91,0.00,,---,0.00,VWS V14.01,2013-02-22 06:03:00,
2013-02-22 00:09:00,20.6,18.4,29.90,NNE,15,4.0,7.0,91,0.00,,---,0.00,VWS V14.01,2013-02-22 06:09:00,
2013-02-22 00:15:00,20.5,18.3,29.90,NNE,27,5.0,8.0,91,0.00,,---,0.00,VWS V14.01,2013-02-22 06:15:00,
2013-02-22 00:21:00,20.4,18.2,29.90,North,360,3.0,8.0,91,0.00,,---,0.00,VWS V14.01,2013-02-22 06:21:00,
2013-02-22 00:27:00,20.3,18.1,29.90,North,360,5.0,8.0,91,0.00,,---,0.00,VWS V14.01,2013-02-22 06:27:00,
2013-02-22 00:33:00,20.3,18.1,29.90,North,360,3.0,6.0,91,0.00,,---,0.00,VWS V14.01,2013-02-22 06:33:00,
2013-02-22 00:39:00,20.1,17.9,29.90,North,360,3.0,7.0,91,0.00,,---,0.00,VWS V14.01,2013-02-22 06:39:00,
2013-02-22 00:45:00,20.0,17.8,29.90,NNW,348,5.0,7.0,91,0.00,,---,0.00,VWS V14.01,2013-02-22 06:45:00,
2013-02-22 00:51:00,19.8,17.6,29.90,NNE,13,5.0,7.0,91,0.00,,---,0.00,VWS V14.01,2013-02-22 06:51:00,
2013-02-22 00:57:00,19.7,17.5,29.90,North,355,4.0,7.0,91,0.00,,---,0.00,VWS V14.01,2013-02-22 06:57:00,
2013-02-22 01:03:00,19.7,17.5,29.90,North,5,5.0,7.0,91,0.00,,---,0.00,VWS V14.01,2013-02-22 07:03:00,
2013-02-22 01:09:00,19.7,17.5,29.90,North,360,6.0,9.0,91,0.00,,---,0.00,VWS V14.01,2013-02-22 07:09:00,
2013-02-22 01:16:00,19.6,17.4,29.90,North,360,5.0,9.0,91,0.00,,---,0.00,VWS V14.01,2013-02-22 07:16:00,
2013-02-22 01:22:00,19.4,17.2,29.90,North,350,2.0,9.0,91,0.00,,---,0.00,VWS V14.01,2013-02-22 07:22:00,
2013-02-22 01:28:00,19.3,17.1,29.90,NNW,340,4.0,9.0,91,0.00,,---,0.00,VWS V14.01,2013-02-22 07:28:00,
2013-02-22 01:34:00,19.2,17.0,29.90,NNW,347,5.0,6.0,91,0.00,,---,0.00,VWS V14.01,2013-02-22 07:34:00,
2013-02-22 01:40:00,19.1,16.9,29.90,NNW,335,7.0,7.0,91,0.00,,---,0.00,VWS V14.01,2013-02-22 07:40:00,
2013-02-22 01:46:00,19.0,16.8,29.90,North,350,4.0,7.0,91,0.00,,---,0.00,VWS V14.01,2013-02-22 07:46:00,
2013-02-22 01:52:00,19.0,16.8,29.90,NNW,344,5.0,8.0,91,0.00,,---,0.00,VWS V14.01,2013-02-22 07:52:00,
2013-02-22 01:58:00,18.9,16.7,29.90,NNW,336,4.0,8.0,91,0.00,,---,0.00,VWS V14.01,2013-02-22 07:58:00,
2013-02-22 02:04:00,18.9,16.7,29.90,NNW,331,3.0,6.0,91,0.00,,---,0.00,VWS V14.01,2013-02-22 08:04:00,
2013-02-22 02:10:00,18.9,16.7,29.90,NNW,328,4.0,7.0,91,0.00,,---,0.00,VWS V14.01,2013-02-22 08:10:00,
2013-02-22 02:16:00,18.9,16.7,29.91,NNW,338,5.0,7.0,91,0.00,,---,0.00,VWS V14.01,2013-02-22 08:16:00,
2013-02-22 02:22:00,18.8,16.6,29.91,NNW,341,5.0,7.0,91,0.00,,---,0.00,VWS V14.01,2013-02-22 08:22:00,
2013-02-22 02:28:00,18.8,16.6,29.91,NNW,330,4.0,7.0,91,0.00,,---,0.00,VWS V14.01,2013-02-22 08:28:00,
2013-02-22 02:34:00,18.8,16.6,29.91,NNW,337,5.0,7.0,91,0.00,,---,0.00,VWS V14.01,2013-02-22 08:34:00,
2013-02-22 02:40:00,18.8,16.6,29.91,NNW,336,6.0,10.0,91,0.00,,---,0.00,VWS V14.01,2013-02-22 08:40:00,
2013-02-22 02:46:00,18.8,16.6,29.91,NNW,332,4.0,10.0,91,0.00,,---,0.00,VWS V14.01,2013-02-22 08:46:00,
2013-02-22 02:52:00,18.8,16.6,29.91,NW,321,5.0,10.0,91,0.00,,---,0.00,VWS V14.01,2013-02-22 08:52:00,
2013-02-22 02:58:00,18.8,16.6,29.91,NNW,330,5.0,10.0,91,0.00,,---,0.00,VWS V14.01,2013-02-22 08:58:00,
2013-02-22 03:04:00,18.7,16.5,29.91,NW,318,6.0,9.0,91,0.00,,---,0.00,VWS V14.01,2013-02-22 09:04:00,
2013-02-22 03:10:00,18.7,16.5,29.90,NW,315,4.0,10.0,91,0.00,,---,0.00,VWS V14.01,2013-02-22 09:10:00,
2013-02-22 03:16:00,18.6,16.4,29.90,NW,309,8.0,10.0,91,0.00,,---,0.00,VWS V14.01,2013-02-22 09:16:00,
2013-02-22 03:22:00,18.6,16.4,29.90,West,279,5.0,10.0,91,0.00,,---,0.00,VWS V14.01,2013-02-22 09:22:00,
2013-02-22 03:28:00,18.5,16.3,29.90,West,279,8.0,10.0,91,0.00,,---,0.00,VWS V14.01,2013-02-22 09:28:00,
2013-02-22 03:35:00,18.5,16.1,29.91,NW,315,3.0,9.0,90,0.00,,---,0.00,VWS V14.01,2013-02-22 09:35:00,
2013-02-22 03:41:00,18.4,16.0,29.90,NW,317,3.0,9.0,90,0.00,,---,0.00,VWS V14.01,2013-02-22 09:41:00,
2013-02-22 03:47:00,18.3,16.1,29.91,NW,315,7.0,10.0,91,0.00,,---,0.00,VWS V14.01,2013-02-22 09:47:00,
2013-02-22 03:53:00,18.2,15.8,29.91,NW,324,3.0,12.0,90,0.00,,---,0.00,VWS V14.01,2013-02-22 09:53:00,
2013-02-22 03:59:00,18.1,15.7,29.91,NNW,327,7.0,12.0,90,0.00,,---,0.00,VWS V14.01,2013-02-22 09:59:00,
2013-02-22 04:05:00,18.0,15.6,29.91,NW,321,6.0,10.0,90,0.00,,---,0.00,VWS V14.01,2013-02-22 10:05:00,
2013-02-22 04:11:00,17.9,15.5,29.91,NW,312,5.0,10.0,90,0.00,,---,0.00,VWS V14.01,2013-02-22 10:11:00,
2013-02-22 04:17:00,17.9,15.5,29.91,NW,325,6.0,11.0,90,0.00,,---,0.00,VWS V14.01,2013-02-22 10:17:00,
2013-02-22 04:23:00,17.8,15.4,29.91,NW,321,7.0,13.0,90,0.00,,---,0.00,VWS V14.01,2013-02-22 10:23:00,
2013-02-22 04:29:00,17.9,15.5,29.91,NW,314,4.0,13.0,90,0.00,,---,0.00,VWS V14.01,2013-02-22 10:29:00,
2013-02-22 04:35:00,17.9,15.5,29.91,WNW,284,6.0,9.0,90,0.00,,---,0.00,VWS V14.01,2013-02-22 10:35:00,
2013-02-22 04:41:00,17.9,15.5,29.91,NNW,329,4.0,11.0,90,0.00,,---,0.00,VWS V14.01,2013-02-22 10:41:00,
2013-02-22 04:47:00,18.0,15.6,29.91,NW,314,12.0,13.0,90,0.00,,---,0.00,VWS V14.01,2013-02-22 10:47:00,
2013-02-22 04:53:00,18.0,15.6,29.91,WNW,302,11.0,13.0,90,0.00,,---,0.00,VWS V14.01,2013-02-22 10:53:00,
2013-02-22 04:59:00,18.0,15.6,29.92,WNW,291,5.0,14.0,90,0.00,,---,0.00,VWS V14.01,2013-02-22 10:59:00,
2013-02-22 05:06:00,18.1,15.7,29.92,NW,322,6.0,13.0,90,0.00,,---,0.00,VWS V14.01,2013-02-22 11:06:00,
2013-02-22 05:12:00,18.1,15.7,29.92,NW,315,9.0,13.0,90,0.00,,---,0.00,VWS V14.01,2013-02-22 11:12:00,
2013-02-22 05:18:00,18.0,15.6,29.92,NW,323,8.0,13.0,90,0.00,,---,0.00,VWS V14.01,2013-02-22 11:18:00,
2013-02-22 05:24:00,18.0,15.6,29.92,NW,321,7.0,13.0,90,0.00,,---,0.00,VWS V14.01,2013-02-22 11:24:00,
2013-02-22 05:30:00,17.9,15.5,29.92,NW,316,9.0,13.0,90,0.00,,---,0.00,VWS V14.01,2013-02-22 11:30:00,
2013-02-22 05:36:00,17.8,15.4,29.92,NW,321,6.0,13.0,90,0.00,,---,0.00,VWS V14.01,2013-02-22 11:36:00,
2013-02-22 05:42:00,17.7,15.3,29.92,NNW,331,5.0,13.0,90,0.00,,---,0.00,VWS V14.01,2013-02-22 11:42:00,
2013-02-22 05:48:00,17.6,15.2,29.93,NW,314,7.0,13.0,90,0.00,,---,0.00,VWS V14.01,2013-02-22 11:48:00,
2013-02-22 05:54:00,17.5,15.1,29.93,NW,319,6.0,13.0,90,0.00,,---,0.00,VWS V14.01,2013-02-22 11:54:00,
2013-02-22 06:00:00,17.4,15.0,29.93,NW,307,3.0,13.0,90,0.00,,---,0.00,VWS V14.01,2013-02-22 12:00:00,
2013-02-22 06:06:00,17.2,14.8,29.94,NW,314,4.0,9.0,90,0.00,,---,0.00,VWS V14.01,2013-02-22 12:06:00,
2013-02-22 06:12:00,17.0,14.6,29.94,NW,320,5.0,10.0,90,0.00,,---,0.00,VWS V14.01,2013-02-22 12:12:00,
2013-02-22 06:18:00,16.9,14.5,29.94,NW,309,4.0,11.0,90,0.00,,---,0.00,VWS V14.01,2013-02-22 12:18:00,
2013-02-22 06:24:00,16.7,14.3,29.94,NW,309,9.0,11.0,90,0.00,,---,0.00,VWS V14.01,2013-02-22 12:24:00,
2013-02-22 06:30:00,16.4,14.0,29.94,WNW,290,4.0,11.0,90,0.00,,---,0.00,VWS V14.01,2013-02-22 12:30:00,
2013-02-22 06:36:00,16.3,13.9,29.94,WNW,293,3.0,9.0,90,0.00,,---,0.00,VWS V14.01,2013-02-22 12:36:00,
2013-02-22 06:42:00,16.1,13.4,29.94,WNW,290,5.0,9.0,89,0.00,,---,0.00,VWS V14.01,2013-02-22 12:42:00,
2013-02-22 06:48:00,15.9,13.2,29.94,WNW,284,5.0,10.0,89,0.00,,---,0.00,VWS V14.01,2013-02-22 12:48:00,
2013-02-22 06:54:00,15.7,13.0,29.95,NW,311,5.0,10.0,89,0.00,,---,0.00,VWS V14.01,2013-02-22 12:54:00,
2013-02-22 07:00:00,15.5,12.8,29.95,NW,312,3.0,10.0,89,0.00,,---,0.00,VWS V14.01,2013-02-22 13:00:00,
2013-02-22 07:06:00,15.3,12.6,29.95,NW,314,10.0,11.0,89,0.00,,---,0.00,VWS V14.01,2013-02-22 13:06:00,
2013-02-22 07:12:00,15.0,12.4,29.95,WNW,296,4.0,11.0,89,0.00,,---,0.00,VWS V14.01,2013-02-22 13:12:00,
2013-02-22 07:19:00,14.8,12.1,29.96,WNW,294,3.0,11.0,89,0.00,,---,0.00,VWS V14.01,2013-02-22 13:19:00,
2013-02-22 07:25:00,14.5,11.9,29.96,NW,314,3.0,11.0,89,0.00,,---,0.00,VWS V14.01,2013-02-22 13:25:00,
2013-02-22 07:31:00,14.3,11.7,29.96,NW,318,5.0,11.0,89,0.00,,---,0.00,VWS V14.01,2013-02-22 13:31:00,
2013-02-22 07:37:00,14.3,11.7,29.96,WNW,287,4.0,13.0,89,0.00,,---,0.00,VWS V14.01,2013-02-22 13:37:00,
2013-02-22 07:43:00,14.3,11.7,29.96,WNW,284,4.0,13.0,89,0.00,,---,0.00,VWS V14.01,2013-02-22 13:43:00,
2013-02-22 07:49:00,14.5,11.9,29.97,NW,306,4.0,13.0,89,0.00,,---,0.00,VWS V14.01,2013-02-22 13:49:00,
2013-02-22 07:55:00,14.8,12.1,29.97,NW,318,7.0,13.0,89,0.00,,---,0.00,VWS V14.01,2013-02-22 13:55:00,
2013-02-22 08:01:00,15.0,12.4,29.97,NW,317,5.0,13.0,89,0.00,,---,0.00,VWS V14.01,2013-02-22 14:01:00,
2013-02-22 08:07:00,15.4,12.7,29.98,NW,315,10.0,12.0,89,0.00,,---,0.00,VWS V14.01,2013-02-22 14:07:00,
2013-02-22 08:13:00,15.7,13.3,29.98,West,281,6.0,14.0,90,0.00,,---,0.00,VWS V14.01,2013-02-22 14:13:00,
2013-02-22 08:19:00,16.1,13.4,29.98,NW,325,5.0,14.0,89,0.00,,---,0.00,VWS V14.01,2013-02-22 14:19:00,
2013-02-22 08:25:00,16.3,13.6,29.99,NW,324,7.0,14.0,89,0.00,,---,0.00,VWS V14.01,2013-02-22 14:25:00,
2013-02-22 08:31:00,16.6,13.9,29.99,NW,304,6.0,14.0,89,0.00,,---,0.00,VWS V14.01,2013-02-22 14:31:00,
2013-02-22 08:37:00,16.9,14.2,30.00,WNW,289,3.0,12.0,89,0.00,,---,0.00,VWS V14.01,2013-02-22 14:37:00,
2013-02-22 08:43:00,17.2,14.5,30.00,NW,319,9.0,13.0,89,0.00,,---,0.00,VWS V14.01,2013-02-22 14:43:00,
2013-02-22 08:49:00,17.6,14.9,30.00,WNW,284,3.0,13.0,89,0.00,,---,0.00,VWS V14.01,2013-02-22 14:49:00,
2013-02-22 08:55:00,17.9,15.2,30.00,WNW,286,5.0,13.0,89,0.00,,---,0.00,VWS V14.01,2013-02-22 14:55:00,
2013-02-22 09:01:00,18.1,15.4,30.01,WNW,287,3.0,13.0,89,0.00,,---,0.00,VWS V14.01,2013-02-22 15:01:00,
2013-02-22 09:07:00,18.4,15.7,30.01,WNW,284,2.0,7.0,89,0.00,,---,0.00,VWS V14.01,2013-02-22 15:07:00,
2013-02-22 09:13:00,18.6,15.9,30.01,WNW,283,3.0,7.0,89,0.00,,---,0.00,VWS V14.01,2013-02-22 15:13:00,
2013-02-22 09:19:00,18.8,16.1,30.01,WNW,288,2.0,7.0,89,0.01,,---,0.01,VWS V14.01,2013-02-22 15:19:00,
2013-02-22 09:25:00,19.0,16.3,30.01,West,278,4.0,7.0,89,0.01,,---,0.01,VWS V14.01,2013-02-22 15:25:00,
2013-02-22 09:31:00,19.1,16.4,30.02,West,261,1.0,7.0,89,0.02,,---,0.02,VWS V14.01,2013-02-22 15:31:00,
2013-02-22 09:37:00,19.2,16.5,30.03,West,269,3.0,11.0,89,0.02,,---,0.02,VWS V14.01,2013-02-22 15:37:00,
2013-02-22 09:46:00,19.2,16.5,30.03,West,265,3.0,11.0,89,0.02,,---,0.02,VWS V14.01,2013-02-22 15:46:00,
2013-02-22 09:52:00,19.1,16.4,30.02,West,272,7.0,11.0,89,0.02,,---,0.02,VWS V14.01,2013-02-22 15:52:00,
2013-02-22 09:58:00,19.0,16.3,30.02,West,263,2.0,11.0,89,0.02,,---,0.02,VWS V14.01,2013-02-22 15:58:00,
2013-02-22 10:04:00,18.9,16.2,30.02,WNW,291,2.0,6.0,89,0.02,,---,0.02,VWS V14.01,2013-02-22 16:04:00,
2013-02-22 10:10:00,19.3,16.6,30.02,West,281,5.0,6.0,89,0.02,,---,0.02,VWS V14.01,2013-02-22 16:10:00,
2013-02-22 10:16:00,19.6,16.9,30.02,West,269,3.0,6.0,89,0.02,,---,0.02,VWS V14.01,2013-02-22 16:16:00,
2013-02-22 10:22:00,19.7,17.0,30.02,NW,309,9.0,10.0,89,0.02,,---,0.02,VWS V14.01,2013-02-22 16:22:00,
2013-02-22 10:28:00,19.7,17.0,30.03,WNW,291,4.0,10.0,89,0.02,,---,0.02,VWS V14.01,2013-02-22 16:28:00,
2013-02-22 10:36:00,20.1,17.4,30.02,WNW,289,4.0,9.0,89,0.02,,---,0.02,VWS V14.01,2013-02-22 16:36:00,
2013-02-22 10:42:00,20.2,17.5,30.02,WNW,298,5.0,11.0,89,0.02,,---,0.02,VWS V14.01,2013-02-22 16:42:00,
2013-02-22 10:48:00,20.1,17.4,30.02,West,280,4.0,11.0,89,0.02,,---,0.02,VWS V14.01,2013-02-22 16:48:00,
2013-02-22 10:54:00,19.9,17.2,30.03,West,276,3.0,11.0,89,0.03,,---,0.03,VWS V14.01,2013-02-22 16:54:00,
2013-02-22 11:01:00,19.8,17.1,30.03,WNW,284,6.0,11.0,89,0.03,,---,0.03,VWS V14.01,2013-02-22 17:01:00,
2013-02-22 11:07:00,19.8,17.1,30.04,WNW,287,5.0,8.0,89,0.01,,---,0.03,VWS V14.01,2013-02-22 17:07:00,
2013-02-22 11:13:00,20.1,17.4,30.04,WNW,284,4.0,8.0,89,0.01,,---,0.03,VWS V14.01,2013-02-22 17:13:00,
2013-02-22 11:19:00,20.7,18.2,30.05,WNW,290,1.0,8.0,90,0.02,,---,0.04,VWS V14.01,2013-02-22 17:19:00,
2013-02-22 11:25:00,21.2,18.7,30.05,West,277,2.0,8.0,90,0.02,,---,0.04,VWS V14.01,2013-02-22 17:25:00,
2013-02-22 11:31:00,21.4,18.7,30.05,WNW,290,2.0,9.0,89,0.02,,---,0.04,VWS V14.01,2013-02-22 17:31:00,
2013-02-22 11:37:00,21.5,18.8,30.06,West,275,1.0,8.0,89,0.02,,---,0.05,VWS V14.01,2013-02-22 17:37:00,
2013-02-22 11:43:00,21.5,18.8,30.05,West,280,4.0,11.0,89,0.02,,---,0.05,VWS V14.01,2013-02-22 17:43:00,
2013-02-22 11:49:00,21.5,18.8,30.06,WNW,284,3.0,11.0,89,0.02,,---,0.05,VWS V14.01,2013-02-22 17:49:00,
2013-02-22 11:55:00,21.6,18.9,30.06,West,275,5.0,12.0,89,0.03,,---,0.06,VWS V14.01,2013-02-22 17:55:00,
2013-02-22 12:01:00,21.6,18.9,30.06,WNW,287,4.0,12.0,89,0.03,,---,0.06,VWS V14.01,2013-02-22 18:01:00,
2013-02-22 12:07:00,22.4,19.9,30.06,WNW,284,7.0,11.0,90,0.03,,---,0.06,VWS V14.01,2013-02-22 18:07:00,
2013-02-22 12:13:00,22.9,20.1,30.07,West,269,2.0,11.0,89,0.04,,---,0.07,VWS V14.01,2013-02-22 18:13:00,
2013-02-22 12:19:00,22.8,20.0,30.07,West,259,2.0,11.0,89,0.04,,---,0.07,VWS V14.01,2013-02-22 18:19:00,
2013-02-22 12:25:00,22.9,20.1,30.07,West,277,3.0,11.0,89,0.04,,---,0.07,VWS V14.01,2013-02-22 18:25:00,
2013-02-22 12:31:00,23.4,20.6,30.07,West,275,4.0,11.0,89,0.05,,---,0.08,VWS V14.01,2013-02-22 18:31:00,
2013-02-22 12:37:00,23.1,20.1,30.07,WSW,257,3.0,6.0,88,0.04,,---,0.08,VWS V14.01,2013-02-22 18:37:00,
2013-02-22 12:43:00,22.2,18.9,30.07,WSW,257,6.0,6.0,87,0.04,,---,0.08,VWS V14.01,2013-02-22 18:43:00,
2013-02-22 12:49:00,21.1,17.8,30.07,WSW,257,7.0,7.0,87,0.04,,---,0.08,VWS V14.01,2013-02-22 18:49:00,
2013-02-22 12:55:00,20.7,17.7,30.07,West,261,3.0,8.0,88,0.04,,---,0.08,VWS V14.01,2013-02-22 18:55:00,
2013-02-22 13:01:00,21.2,18.5,30.07,West,262,5.0,8.0,89,0.04,,---,0.08,VWS V14.01,2013-02-22 19:01:00,
2013-02-22 13:07:00,21.9,19.2,30.06,SW,227,7.0,8.0,89,0.02,,---,0.08,VWS V14.01,2013-02-22 19:07:00,
2013-02-22 13:13:00,22.5,19.8,30.06,West,260,4.0,8.0,89,0.03,,---,0.09,VWS V14.01,2013-02-22 19:13:00,
2013-02-22 13:19:00,22.0,19.0,30.06,WNW,288,5.0,10.0,88,0.03,,---,0.09,VWS V14.01,2013-02-22 19:19:00,
2013-02-22 13:26:00,22.0,19.3,30.06,West,264,2.0,10.0,89,0.03,,---,0.09,VWS V14.01,2013-02-22 19:26:00,
2013-02-22 13:31:00,22.4,19.7,30.06,West,268,3.0,10.0,89,0.03,,---,0.09,VWS V14.01,2013-02-22 19:31:00,
2013-02-22 13:36:00,22.7,20.0,30.06,WNW,290,6.0,6.0,89,0.01,,---,0.09,VWS V14.01,2013-02-22 19:36:00,
2013-02-22 13:42:00,23.2,20.5,30.06,West,265,5.0,8.0,89,0.01,,---,0.09,VWS V14.01,2013-02-22 19:42:00,
2013-02-22 13:48:00,23.4,20.4,30.06,WNW,286,4.0,12.0,88,0.02,,---,0.10,VWS V14.01,2013-02-22 19:48:00,
2013-02-22 13:54:00,23.4,20.4,30.06,WNW,303,8.0,12.0,88,0.02,,---,0.10,VWS V14.01,2013-02-22 19:54:00,
2013-02-22 14:00:00,23.4,20.4,30.06,West,277,4.0,12.0,88,0.02,,---,0.10,VWS V14.01,2013-02-22 20:00:00,
2013-02-22 14:06:00,23.6,20.6,30.06,West,274,5.0,11.0,88,0.02,,---,0.10,VWS V14.01,2013-02-22 20:06:00,
2013-02-22 14:12:00,23.6,20.6,30.05,West,281,7.0,12.0,88,0.02,,---,0.10,VWS V14.01,2013-02-22 20:12:00,
2013-02-22 14:18:00,23.6,20.6,30.06,West,277,6.0,13.0,88,0.02,,---,0.10,VWS V14.01,2013-02-22 20:18:00,
2013-02-22 14:24:00,23.7,20.7,30.05,WNW,294,7.0,13.0,88,0.02,,---,0.10,VWS V14.01,2013-02-22 20:24:00,
2013-02-22 14:30:00,23.7,20.7,30.05,West,280,7.0,13.0,88,0.02,,---,0.10,VWS V14.01,2013-02-22 20:30:00,
2013-02-22 14:36:00,23.6,20.6,30.05,WNW,294,6.0,13.0,88,0.02,,---,0.11,VWS V14.01,2013-02-22 20:36:00,
2013-02-22 14:42:00,23.6,20.6,30.06,WNW,285,3.0,13.0,88,0.02,,---,0.11,VWS V14.01,2013-02-22 20:42:00,
2013-02-22 14:48:00,24.0,21.2,30.06,NW,313,5.0,13.0,89,0.02,,---,0.11,VWS V14.01,2013-02-22 20:48:00,
2013-02-22 14:54:00,24.0,21.0,30.05,WNW,298,8.0,13.0,88,0.02,,---,0.11,VWS V14.01,2013-02-22 20:54:00,
2013-02-22 15:00:00,23.6,20.3,30.05,WNW,283,7.0,13.0,87,0.02,,---,0.11,VWS V14.01,2013-02-22 21:00:00,
2013-02-22 15:06:00,23.2,20.2,30.05,WNW,291,3.0,9.0,88,0.01,,---,0.11,VWS V14.01,2013-02-22 21:06:00,
2013-02-22 15:12:00,23.1,20.1,30.05,WNW,288,5.0,10.0,88,0.01,,---,0.11,VWS V14.01,2013-02-22 21:12:00,
2013-02-22 15:18:00,23.3,20.3,30.05,WNW,296,5.0,10.0,88,0.01,,---,0.11,VWS V14.01,2013-02-22 21:18:00,
2013-02-22 15:24:00,23.5,20.5,30.05,West,273,7.0,10.0,88,0.01,,---,0.11,VWS V14.01,2013-02-22 21:24:00,
2013-02-22 15:30:00,23.5,20.5,30.05,WNW,302,4.0,12.0,88,0.01,,---,0.11,VWS V14.01,2013-02-22 21:30:00,
2013-02-22 15:36:00,23.5,20.5,30.06,WNW,300,5.0,10.0,88,0.01,,---,0.11,VWS V14.01,2013-02-22 21:36:00,
2013-02-22 15:42:00,23.5,20.5,30.06,WNW,294,2.0,10.0,88,0.01,,---,0.11,VWS V14.01,2013-02-22 21:42:00,
2013-02-22 15:48:00,23.5,20.5,30.06,West,264,3.0,10.0,88,0.01,,---,0.11,VWS V14.01,2013-02-22 21:48:00,
2013-02-22 15:55:00,22.8,19.2,30.06,WSW,244,2.0,10.0,86,0.01,,---,0.11,VWS V14.01,2013-02-22 21:55:00,
2013-02-22 16:01:00,22.0,18.5,30.07,West,260,2.0,10.0,86,0.01,,---,0.11,VWS V14.01,2013-02-22 22:01:00,
2013-02-22 16:07:00,21.3,18.0,30.07,WSW,250,3.0,6.0,87,0.00,,---,0.11,VWS V14.01,2013-02-22 22:07:00,
2013-02-22 16:13:00,21.2,17.9,30.07,WSW,250,4.0,6.0,87,0.00,,---,0.11,VWS V14.01,2013-02-22 22:13:00,
2013-02-22 16:19:00,21.0,17.8,30.07,West,263,1.0,6.0,87,0.00,,---,0.11,VWS V14.01,2013-02-22 22:19:00,
2013-02-22 16:25:00,20.6,17.4,30.07,West,259,2.0,6.0,87,0.00,,---,0.11,VWS V14.01,2013-02-22 22:25:00,
2013-02-22 16:31:00,20.6,17.4,30.07,West,278,2.0,6.0,87,0.00,,---,0.11,VWS V14.01,2013-02-22 22:31:00,
2013-02-22 16:37:00,20.6,17.6,30.07,NW,310,4.0,8.0,88,0.00,,---,0.11,VWS V14.01,2013-02-22 22:37:00,
2013-02-22 16:43:00,20.6,17.6,30.07,West,268,1.0,8.0,88,0.00,,---,0.11,VWS V14.01,2013-02-22 22:43:00,
2013-02-22 16:49:00,20.5,17.5,30.07,West,280,2.0,8.0,88,0.00,,---,0.11,VWS V14.01,2013-02-22 22:49:00,
2013-02-22 16:55:00,20.5,17.5,30.07,WNW,283,0.0,8.0,88,0.00,,---,0.11,VWS V14.01,2013-02-22 22:55:00,
2013-02-22 17:01:00,20.4,17.4,30.07,West,277,1.0,8.0,88,0.00,,---,0.11,VWS V14.01,2013-02-22 23:01:00,
2013-02-22 17:07:00,20.3,17.3,30.07,WNW,292,3.0,9.0,88,0.00,,---,0.11,VWS V14.01,2013-02-22 23:07:00,
2013-02-22 17:13:00,20.2,17.2,30.07,NW,306,2.0,9.0,88,0.00,,---,0.11,VWS V14.01,2013-02-22 23:13:00,
2013-02-22 17:19:00,20.2,17.2,30.07,WNW,286,1.0,9.0,88,0.00,,---,0.11,VWS V14.01,2013-02-22 23:19:00,
2013-02-22 17:25:00,20.1,17.1,30.07,WNW,286,0.0,9.0,88,0.00,,---,0.11,VWS V14.01,2013-02-22 23:25:00,
2013-02-22 17:31:00,19.8,16.8,30.07,West,272,0.0,9.0,88,0.00,,---,0.11,VWS V14.01,2013-02-22 23:31:00,
2013-02-22 17:37:00,19.7,16.7,30.08,West,271,1.0,3.0,88,0.00,,---,0.11,VWS V14.01,2013-02-22 23:37:00,
2013-02-22 17:43:00,19.6,16.6,30.08,WSW,256,3.0,3.0,88,0.00,,---,0.11,VWS V14.01,2013-02-22 23:43:00,
2013-02-22 17:49:00,19.5,16.5,30.08,WSW,257,2.0,3.0,88,0.00,,---,0.11,VWS V14.01,2013-02-22 23:49:00,
2013-02-22 17:55:00,19.4,16.4,30.08,West,269,0.0,3.0,88,0.00,,---,0.11,VWS V14.01,2013-02-22 23:55:00,
2013-02-22 18:01:00,19.4,16.4,30.08,West,259,2.0,4.0,88,0.00,,---,0.11,VWS V14.01,2013-02-23 00:01:00,
2013-02-22 18:07:00,19.3,16.3,30.08,West,259,1.0,4.0,88,0.00,,---,0.11,VWS V14.01,2013-02-23 00:07:00,
2013-02-22 18:14:00,19.1,16.1,30.08,West,260,0.0,4.0,88,0.00,,---,0.11,VWS V14.01,2013-02-23 00:14:00,
2013-02-22 18:20:00,18.9,15.9,30.08,West,260,0.0,4.0,88,0.00,,---,0.11,VWS V14.01,2013-02-23 00:20:00,
2013-02-22 18:26:00,18.5,15.3,30.08,WSW,246,0.0,4.0,87,0.00,,---,0.11,VWS V14.01,2013-02-23 00:26:00,
2013-02-22 18:31:00,18.1,14.9,30.08,WSW,247,0.0,4.0,87,0.00,,---,0.11,VWS V14.01,2013-02-23 00:31:00,
2013-02-22 18:36:00,17.7,14.5,30.08,WSW,247,0.0,0.0,87,0.00,,---,0.11,VWS V14.01,2013-02-23 00:36:00,
2013-02-22 18:42:00,17.1,13.6,30.09,WSW,246,0.0,0.0,86,0.00,,---,0.11,VWS V14.01,2013-02-23 00:42:00,
2013-02-22 18:48:00,16.2,12.8,30.09,WSW,246,0.0,0.0,86,0.00,,---,0.11,VWS V14.01,2013-02-23 00:48:00,
2013-02-22 18:54:00,15.7,12.5,30.09,WSW,246,0.0,0.0,87,0.00,,---,0.11,VWS V14.01,2013-02-23 00:54:00,
2013-02-22 19:00:00,15.3,12.1,30.09,WSW,246,0.0,0.0,87,0.00,,---,0.11,VWS V14.01,2013-02-23 01:00:00,
2013-02-22 19:06:00,14.9,11.5,30.09,WSW,246,0.0,0.0,86,0.00,,---,0.11,VWS V14.01,2013-02-23 01:06:00,
2013-02-22 19:12:00,14.5,11.3,30.09,WSW,246,0.0,0.0,87,0.00,,---,0.11,VWS V14.01,2013-02-23 01:12:00,
2013-02-22 19:18:00,14.1,10.9,30.09,WSW,247,0.0,0.0,87,0.00,,---,0.11,VWS V14.01,2013-02-23 01:18:00,
2013-02-22 19:24:00,13.9,10.8,30.09,WSW,247,0.0,0.0,87,0.00,,---,0.11,VWS V14.01,2013-02-23 01:24:00,
2013-02-22 19:30:00,13.8,10.6,30.09,WSW,247,0.0,0.0,87,0.00,,---,0.11,VWS V14.01,2013-02-23 01:30:00,
2013-02-22 19:36:00,13.5,10.4,30.10,WSW,247,0.0,0.0,87,0.00,,---,0.11,VWS V14.01,2013-02-23 01:36:00,
2013-02-22 19:42:00,13.2,10.1,30.10,WSW,247,0.0,0.0,87,0.00,,---,0.11,VWS V14.01,2013-02-23 01:42:00,
2013-02-22 19:48:00,13.3,10.2,30.09,WSW,246,0.0,0.0,87,0.00,,---,0.11,VWS V14.01,2013-02-23 01:48:00,
2013-02-22 19:54:00,13.7,10.8,30.09,WSW,246,0.0,0.0,88,0.00,,---,0.11,VWS V14.01,2013-02-23 01:54:00,
2013-02-22 20:00:00,14.3,11.4,30.09,WSW,246,0.0,0.0,88,0.00,,---,0.11,VWS V14.01,2013-02-23 02:00:00,
2013-02-22 20:06:00,14.6,11.7,30.09,WSW,246,0.0,0.0,88,0.00,,---,0.11,VWS V14.01,2013-02-23 02:06:00,
2013-02-22 20:12:00,14.6,11.4,30.09,WSW,246,0.0,0.0,87,0.00,,---,0.11,VWS V14.01,2013-02-23 02:12:00,
2013-02-22 20:18:00,14.4,11.2,30.09,WSW,246,0.0,0.0,87,0.00,,---,0.11,VWS V14.01,2013-02-23 02:18:00,
2013-02-22 20:24:00,14.2,11.1,30.09,WSW,247,0.0,1.0,87,0.00,,---,0.11,VWS V14.01,2013-02-23 02:24:00,
2013-02-22 20:31:00,14.4,11.5,30.09,WSW,246,0.0,1.0,88,0.00,,---,0.11,VWS V14.01,2013-02-23 02:31:00,
2013-02-22 20:37:00,14.5,11.3,30.09,WSW,246,0.0,1.0,87,0.00,,---,0.11,VWS V14.01,2013-02-23 02:37:00,
2013-02-22 20:43:00,14.4,11.2,30.09,WSW,246,0.0,1.0,87,0.00,,---,0.11,VWS V14.01,2013-02-23 02:43:00,
2013-02-22 20:49:00,14.3,11.1,30.09,WSW,246,0.0,1.0,87,0.00,,---,0.11,VWS V14.01,2013-02-23 02:49:00,
2013-02-22 20:55:00,13.9,10.8,30.09,WSW,246,0.0,1.0,87,0.00,,---,0.11,VWS V14.01,2013-02-23 02:55:00,
2013-02-22 21:01:00,13.4,10.3,30.09,WSW,247,0.0,1.0,87,0.00,,---,0.11,VWS V14.01,2013-02-23 03:01:00,
2013-02-22 21:07:00,12.7,9.3,30.09,WSW,246,0.0,0.0,86,0.00,,---,0.11,VWS V14.01,2013-02-23 03:07:00,
2013-02-22 21:13:00,12.3,9.2,30.09,WSW,246,0.0,0.0,87,0.00,,---,0.11,VWS V14.01,2013-02-23 03:13:00,
2013-02-22 21:19:00,12.1,9.0,30.09,WSW,246,0.0,0.0,87,0.00,,---,0.11,VWS V14.01,2013-02-23 03:19:00,
2013-02-22 21:25:00,12.2,9.3,30.09,WSW,246,0.0,0.0,88,0.00,,---,0.11,VWS V14.01,2013-02-23 03:25:00,
2013-02-22 21:31:00,12.2,9.3,30.09,WSW,246,0.0,0.0,88,0.00,,---,0.11,VWS V14.01,2013-02-23 03:31:00,
2013-02-22 21:37:00,12.3,9.4,30.09,WSW,246,0.0,0.0,88,0.00,,---,0.11,VWS V14.01,2013-02-23 03:37:00,
2013-02-22 21:43:00,12.0,8.9,30.09,WSW,246,0.0,0.0,87,0.00,,---,0.11,VWS V14.01,2013-02-23 03:43:00,
2013-02-22 21:49:00,11.8,8.7,30.09,WSW,246,0.0,0.0,87,0.00,,---,0.11,VWS V14.01,2013-02-23 03:49:00,
2013-02-22 21:55:00,12.0,9.1,30.09,WSW,246,0.0,1.0,88,0.00,,---,0.11,VWS V14.01,2013-02-23 03:55:00,
2013-02-22 22:01:00,11.9,8.8,30.09,WSW,246,0.0,1.0,87,0.00,,---,0.11,VWS V14.01,2013-02-23 04:01:00,
2013-02-22 22:07:00,11.7,8.6,30.09,WSW,246,0.0,1.0,87,0.00,,---,0.11,VWS V14.01,2013-02-23 04:07:00,
2013-02-22 22:13:00,11.4,8.3,30.09,WSW,246,0.0,1.0,87,0.00,,---,0.11,VWS V14.01,2013-02-23 04:13:00,
2013-02-22 22:19:00,11.1,8.0,30.09,WSW,246,0.0,1.0,87,0.00,,---,0.11,VWS V14.01,2013-02-23 04:19:00,
2013-02-22 22:25:00,10.9,7.8,30.09,WSW,246,0.0,1.0,87,0.00,,---,0.11,VWS V14.01,2013-02-23 04:25:00,
2013-02-22 22:31:00,10.8,7.7,30.09,WSW,246,0.0,1.0,87,0.00,,---,0.11,VWS V14.01,2013-02-23 04:31:00,
2013-02-22 22:38:00,10.8,7.7,30.09,WSW,248,0.0,1.0,87,0.00,,---,0.11,VWS V14.01,2013-02-23 04:38:00,
2013-02-22 22:44:00,10.7,7.6,30.09,WSW,248,1.0,1.0,87,0.00,,---,0.11,VWS V14.01,2013-02-23 04:44:00,
2013-02-22 22:50:00,10.8,7.7,30.09,SW,234,2.0,4.0,87,0.00,,---,0.11,VWS V14.01,2013-02-23 04:50:00,
2013-02-22 22:56:00,10.7,7.6,30.09,SW,233,0.0,4.0,87,0.00,,---,0.11,VWS V14.01,2013-02-23 04:56:00,
2013-02-22 23:00:00,10.6,7.5,30.09,SW,234,1.0,4.0,87,0.00,,---,0.11,VWS V14.01,2013-02-23 05:00:00,
2013-02-22 23:01:00,10.6,7.5,30.09,SW,234,0.0,4.0,87,0.00,,---,0.11,VWS V14.01,2013-02-23 05:01:00,
2013-02-22 23:02:00,10.6,7.5,30.09,SW,234,0.0,0.0,87,0.00,,---,0.11,VWS V14.01,2013-02-23 05:02:00,
2013-02-22 23:06:00,10.6,7.5,30.09,SW,233,0.0,0.0,87,0.00,,---,0.11,VWS V14.01,2013-02-23 05:06:00,
2013-02-22 23:12:00,10.7,7.8,30.09,SW,234,2.0,2.0,88,0.00,,---,0.11,VWS V14.01,2013-02-23 05:12:00,
2013-02-22 23:18:00,10.5,7.4,30.09,SW,233,2.0,4.0,87,0.00,,---,0.11,VWS V14.01,2013-02-23 05:18:00,
2013-02-22 23:24:00,10.2,7.1,30.08,SW,230,2.0,4.0,87,0.00,,---,0.11,VWS V14.01,2013-02-23 05:24:00,
2013-02-22 23:30:00,9.9,6.8,30.08,SW,219,4.0,5.0,87,0.00,,---,0.11,VWS V14.01,2013-02-23 05:30:00,
2013-02-22 23:36:00,9.9,7.1,30.08,SW,219,4.0,6.0,88,0.00,,---,0.11,VWS V14.01,2013-02-23 05:36:00,
2013-02-22 23:42:00,9.9,7.1,30.08,SW,219,3.0,7.0,88,0.00,,---,0.11,VWS V14.01,2013-02-23 05:42:00,
2013-02-22 23:48:00,9.9,7.1,30.08,SW,217,5.0,7.0,88,0.00,,---,0.11,VWS V14.01,2013-02-23 05:48:00,
2013-02-22 23:54:00,9.9,7.1,30.08,SW,217,4.0,7.0,88,0.00,,---,0.11,VWS V14.01,2013-02-23 05:54:00,